Time;durP1;ratioP1;P1;durP2;ratioP2;P2;SDS_P1;SDS_P2;PMS_P1;PMS_P2;Temp;Humidity;BMP_temperature;BMP_pressure;BME280_temperature;BME280_humidity;BME280_pressure;Samples;Min_cycle;Max_cycle;Signal;HPM_P1;HPM_P2
2023/10/13 00:01:30;;;;;;;;;;;14.00;99.90;;;;;;5116966;28;19924;-41
2023/10/13 00:03:56;;;;;;;;;;;14.00;99.90;;;;;;5116912;28;19931;-41
2023/10/13 00:06:21;;;;;;;;;;;14.00;99.90;;;;;;5117012;28;19923;-41
2023/10/13 00:08:47;;;;;;;;;;;14.10;99.90;;;;;;5116241;28;20022;-41
2023/10/13 00:11:13;;;;;;;;;;;14.10;99.90;;;;;;5116604;28;19924;-41
2023/10/13 00:13:51;;;;;;;;;;;14.10;99.90;;;;;;5116931;28;19924;-41
2023/10/13 00:16:21;;;;;;;;;;;14.10;99.90;;;;;;5116873;28;19924;-41
2023/10/13 00:18:48;;;;;;;;;;;14.10;99.90;;;;;;5116808;28;19931;-41
2023/10/13 00:21:13;;;;;;;;;;;14.20;99.90;;;;;;5115681;28;19930;-41
2023/10/13 00:23:43;;;;;;;;;;;14.20;99.90;;;;;;5116690;28;20359;-41
2023/10/13 00:26:09;;;;;;;;;;;14.20;99.90;;;;;;5116704;28;19927;-42
2023/10/13 00:28:46;;;;;;;;;;;14.20;99.90;;;;;;5116611;28;20267;-41
2023/10/13 00:31:12;;;;;;;;;;;14.30;99.90;;;;;;5116389;28;19941;-41
2023/10/13 00:33:38;;;;;;;;;;;14.20;99.90;;;;;;5116912;28;19928;-41
2023/10/13 00:36:05;;;;;;;;;;;14.30;99.90;;;;;;5116455;28;19927;-41
2023/10/13 00:38:30;;;;;;;;;;;14.30;99.90;;;;;;5116367;28;20332;-41
2023/10/13 00:41:03;;;;;;;;;;;14.30;99.90;;;;;;5116482;28;19924;-41
2023/10/13 00:43:32;;;;;;;;;;;14.30;99.90;;;;;;5116315;28;19924;-41
2023/10/13 00:48:33;;;;;;;;;;;14.40;99.90;;;;;;5116078;28;20382;-41
2023/10/13 00:51:06;;;;;;;;;;;14.50;99.90;;;;;;5116046;28;19924;-41
2023/10/13 00:53:39;;;;;;;;;;;14.50;99.90;;;;;;5115155;28;19931;-42
2023/10/13 00:56:07;;;;;;;;;;;14.60;99.90;;;;;;5114883;28;19935;-41
2023/10/13 00:58:38;;;;;;;;;;;14.70;99.90;;;;;;5116001;28;19924;-41
2023/10/13 01:01:22;;;;;;;;;;;14.70;99.90;;;;;;5116266;27;20317;-41
2023/10/13 01:03:49;;;;;;;;;;;14.70;99.90;;;;;;5116039;28;20379;-41
2023/10/13 01:06:19;;;;;;;;;;;14.80;99.90;;;;;;5115580;27;19928;-41
2023/10/13 01:08:50;;;;;;;;;;;14.90;99.90;;;;;;5115689;28;20046;-41
2023/10/13 01:11:19;;;;;;;;;;;14.90;99.90;;;;;;5115488;27;19988;-41
2023/10/13 01:13:47;;;;;;;;;;;15.00;99.90;;;;;;5114674;28;19946;-41
2023/10/13 01:16:12;;;;;;;;;;;15.00;99.90;;;;;;5115644;28;19927;-41
2023/10/13 01:18:47;;;;;;;;;;;15.00;99.90;;;;;;5115560;28;20019;-42
2023/10/13 01:21:15;;;;;;;;;;;15.00;99.90;;;;;;5115535;28;19931;-41
2023/10/13 01:23:43;;;;;;;;;;;15.00;99.90;;;;;;5115535;28;19976;-41
2023/10/13 01:26:09;;;;;;;;;;;15.10;99.90;;;;;;5115424;28;19923;-41
2023/10/13 01:28:44;;;;;;;;;;;15.10;99.90;;;;;;5115567;28;19924;-41
2023/10/13 01:31:12;;;;;;;;;;;15.20;99.90;;;;;;5115182;28;19927;-41
2023/10/13 01:33:37;;;;;;;;;;;15.20;99.90;;;;;;5115169;28;19924;-41
2023/10/13 01:36:07;;;;;;;;;;;15.20;99.90;;;;;;5114029;28;19938;-41
2023/10/13 01:38:33;;;;;;;;;;;15.30;99.90;;;;;;5115320;28;20009;-41
2023/10/13 01:40:59;;;;;;;;;;;15.30;99.90;;;;;;5115226;28;20389;-41
2023/10/13 01:43:24;;;;;;;;;;;15.30;99.90;;;;;;5115246;28;19931;-41
2023/10/13 01:45:50;;;;;;;;;;;15.30;99.90;;;;;;5114814;28;19924;-41
2023/10/13 01:48:18;;;;;;;;;;;15.40;99.90;;;;;;5114877;28;19924;-41
2023/10/13 01:50:47;;;;;;;;;;;15.40;99.90;;;;;;5115044;28;19923;-41
2023/10/13 01:53:17;;;;;;;;;;;15.40;99.90;;;;;;5115197;28;19924;-42
2023/10/13 01:55:43;;;;;;;;;;;15.40;99.90;;;;;;5114324;28;19924;-41
2023/10/13 01:58:15;;;;;;;;;;;15.50;99.90;;;;;;5114783;28;19924;-41
2023/10/13 02:00:42;;;;;;;;;;;15.50;99.90;;;;;;5114803;28;19930;-41
2023/10/13 02:03:15;;;;;;;;;;;15.50;99.90;;;;;;5114890;28;19928;-41
2023/10/13 02:05:46;;;;;;;;;;;15.50;99.90;;;;;;5114820;28;20412;-41
2023/10/13 02:08:17;;;;;;;;;;;15.50;99.90;;;;;;5114810;28;19934;-43
2023/10/13 02:10:43;;;;;;;;;;;15.50;99.90;;;;;;5114754;28;20420;-41
2023/10/13 02:13:15;;;;;;;;;;;15.50;99.90;;;;;;5114720;28;19977;-41
2023/10/13 02:15:42;;;;;;;;;;;15.60;99.90;;;;;;5114805;28;19924;-41
2023/10/13 02:18:09;;;;;;;;;;;15.60;99.90;;;;;;5114636;28;19930;-41
2023/10/13 02:20:41;;;;;;;;;;;15.60;99.90;;;;;;5114638;28;19931;-41
2023/10/13 02:23:10;;;;;;;;;;;15.60;99.90;;;;;;5114595;28;19924;-41
2023/10/13 02:25:42;;;;;;;;;;;15.60;99.90;;;;;;5114438;28;19935;-44
2023/10/13 02:28:09;;;;;;;;;;;15.60;99.90;;;;;;5114610;28;20010;-42
2023/10/13 02:30:44;;;;;;;;;;;15.70;99.90;;;;;;5114729;28;19923;-42
2023/10/13 02:33:11;;;;;;;;;;;15.70;99.90;;;;;;5096712;28;19924;-41
2023/10/13 02:35:41;;;;;;;;;;;15.70;99.90;;;;;;5114337;28;19924;-42
2023/10/13 02:38:11;;;;;;;;;;;15.70;99.90;;;;;;5113109;28;19924;-44
2023/10/13 02:40:37;;;;;;;;;;;15.70;99.90;;;;;;5114426;28;19923;-41
2023/10/13 02:43:04;;;;;;;;;;;15.70;99.90;;;;;;5114777;28;20432;-41
2023/10/13 02:45:31;;;;;;;;;;;15.70;99.90;;;;;;5117589;28;20037;-41
2023/10/13 02:48:17;;;;;;;;;;;15.70;99.90;;;;;;5118614;28;19924;-41
2023/10/13 02:50:44;;;;;;;;;;;15.70;99.90;;;;;;5118538;28;19924;-42
2023/10/13 02:53:13;;;;;;;;;;;15.70;99.90;;;;;;5118483;28;20291;-41
2023/10/13 02:55:49;;;;;;;;;;;15.80;99.90;;;;;;5118722;28;20294;-42
2023/10/13 02:58:14;;;;;;;;;;;15.80;99.90;;;;;;5118547;28;19924;-41
2023/10/13 03:00:41;;;;;;;;;;;15.80;99.90;;;;;;5118176;28;19930;-42
2023/10/13 03:03:07;;;;;;;;;;;15.80;99.90;;;;;;5118326;28;19970;-41
2023/10/13 03:05:38;;;;;;;;;;;15.80;99.90;;;;;;5117946;28;19924;-41
2023/10/13 03:08:04;;;;;;;;;;;15.80;99.90;;;;;;5118233;28;19924;-41
2023/10/13 03:10:30;;;;;;;;;;;15.90;99.90;;;;;;5117805;28;19950;-41
2023/10/13 03:12:56;;;;;;;;;;;15.90;99.90;;;;;;5117993;28;20382;-41
2023/10/13 03:15:29;;;;;;;;;;;15.90;99.90;;;;;;5118132;28;20363;-41
2023/10/13 03:17:54;;;;;;;;;;;15.90;99.90;;;;;;5117847;28;20386;-41
2023/10/13 03:20:30;;;;;;;;;;;15.90;99.90;;;;;;5117935;28;19931;-41
2023/10/13 03:22:55;;;;;;;;;;;15.90;99.90;;;;;;5117978;28;19927;-40
2023/10/13 03:25:29;;;;;;;;;;;16.00;99.90;;;;;;5117791;28;19930;-40
2023/10/13 03:30:34;;;;;;;;;;;16.00;99.90;;;;;;5117441;28;19924;-40
2023/10/13 03:33:01;;;;;;;;;;;16.00;99.90;;;;;;5117722;28;19924;-40
2023/10/13 03:35:37;;;;;;;;;;;16.00;99.90;;;;;;5117664;28;19968;-40
2023/10/13 03:38:03;;;;;;;;;;;16.00;99.90;;;;;;5116682;28;19923;-40
2023/10/13 03:43:08;;;;;;;;;;;16.10;99.90;;;;;;5117402;28;19927;-40
2023/10/13 03:45:39;;;;;;;;;;;16.10;99.90;;;;;;5117449;27;20022;-40
2023/10/13 03:51:03;;;;;;;;;;;16.00;99.90;;;;;;5117491;28;19924;-40
2023/10/13 03:53:35;;;;;;;;;;;16.10;99.90;;;;;;5117120;28;19924;-40
2023/10/13 03:56:08;;;;;;;;;;;16.10;99.90;;;;;;5117239;28;19978;-40
2023/10/13 03:58:35;;;;;;;;;;;16.10;99.90;;;;;;5117250;28;20363;-40
2023/10/13 04:01:00;;;;;;;;;;;16.10;99.90;;;;;;5117150;28;19946;-40
2023/10/13 04:03:38;;;;;;;;;;;16.10;99.90;;;;;;5116946;28;19924;-41
2023/10/13 04:06:08;;;;;;;;;;;16.10;99.90;;;;;;5115970;28;20386;-40
2023/10/13 04:21:39;;;;;;;;;;;16.10;99.90;;;;;;5116676;28;19928;-40
2023/10/13 04:29:46;;;;;;;;;;;16.00;99.90;;;;;;5116693;28;19930;-40
2023/10/13 04:32:15;;;;;;;;;;;16.10;99.90;;;;;;5116588;28;19924;-40
2023/10/13 04:34:46;;;;;;;;;;;16.00;99.90;;;;;;5116419;28;19930;-40
2023/10/13 04:37:33;;;;;;;;;;;16.10;99.90;;;;;;5115183;28;20023;-40
2023/10/13 04:40:10;;;;;;;;;;;16.10;99.90;;;;;;5116768;28;19930;-39
2023/10/13 04:42:53;;;;;;;;;;;16.10;99.90;;;;;;5116501;28;19934;-40
2023/10/13 04:47:58;;;;;;;;;;;16.10;99.90;;;;;;5116534;28;19924;-40
2023/10/13 04:50:41;;;;;;;;;;;16.10;99.90;;;;;;5116275;28;19924;-40
2023/10/13 04:53:27;;;;;;;;;;;16.10;99.90;;;;;;5116167;28;20069;-40
2023/10/13 04:56:07;;;;;;;;;;;16.10;99.90;;;;;;5115763;28;19924;-40
2023/10/13 05:44:56;;;;;;;;;;;16.20;99.90;;;;;;5114896;28;20385;-42
2023/10/13 05:50:13;;;;;;;;;;;16.10;99.90;;;;;;5115103;28;19931;-41
2023/10/13 06:31:02;;;;;;;;;;;15.90;99.90;;;;;;5114714;28;19937;-42
2023/10/13 06:33:33;;;;;;;;;;;15.90;99.90;;;;;;5114569;28;19923;-41
2023/10/13 06:35:59;;;;;;;;;;;15.90;99.90;;;;;;5114447;28;19977;-43
2023/10/13 06:38:30;;;;;;;;;;;15.90;99.90;;;;;;5113227;28;20018;-41
2023/10/13 06:40:56;;;;;;;;;;;15.90;99.90;;;;;;5114423;28;19931;-42
2023/10/13 06:43:23;;;;;;;;;;;15.90;99.90;;;;;;5114610;28;20283;-42
2023/10/13 06:46:01;;;;;;;;;;;15.90;99.90;;;;;;5114168;28;19930;-41
2023/10/13 06:48:27;;;;;;;;;;;15.90;99.90;;;;;;5114393;28;19924;-42
2023/10/13 06:50:55;;;;;;;;;;;15.90;99.90;;;;;;5114156;28;19931;-41
2023/10/13 06:53:21;;;;;;;;;;;15.90;99.90;;;;;;5114260;28;19923;-42
2023/10/13 06:55:48;;;;;;;;;;;15.90;99.90;;;;;;5114510;28;19924;-42
2023/10/13 06:58:14;;;;;;;;;;;16.00;99.90;;;;;;5114377;28;20065;-44
2023/10/13 07:00:40;;;;;;;;;;;16.00;99.90;;;;;;5113924;28;20420;-42
2023/10/13 07:03:06;;;;;;;;;;;16.00;99.90;;;;;;5114153;28;19981;-42
2023/10/13 07:05:37;;;;;;;;;;;16.00;99.90;;;;;;5114763;28;19931;-43
2023/10/13 07:08:04;;;;;;;;;;;16.00;99.90;;;;;;5113172;28;19938;-42
2023/10/13 07:10:30;;;;;;;;;;;16.00;99.90;;;;;;5114142;28;19924;-42
2023/10/13 07:13:00;;;;;;;;;;;16.10;99.90;;;;;;5113983;28;19973;-42
2023/10/13 07:15:28;;;;;;;;;;;16.10;99.90;;;;;;5114085;28;19975;-41
2023/10/13 07:17:59;;;;;;;;;;;16.10;99.90;;;;;;5113834;28;20367;-42
2023/10/13 07:20:34;;;;;;;;;;;16.20;99.90;;;;;;5114279;28;19993;-43
2023/10/13 07:23:03;;;;;;;;;;;16.20;99.90;;;;;;5114181;28;20333;-43
2023/10/13 07:25:38;;;;;;;;;;;16.20;99.90;;;;;;5113983;28;20438;-42
2023/10/13 07:28:04;;;;;;;;;;;16.20;99.90;;;;;;5113992;28;20289;-42
2023/10/13 07:30:39;;;;;;;;;;;16.20;99.90;;;;;;5116469;28;20392;-42
2023/10/13 07:33:05;;;;;;;;;;;16.20;99.90;;;;;;5117025;28;19923;-42
2023/10/13 07:35:35;;;;;;;;;;;16.20;99.90;;;;;;5116791;28;19924;-42
2023/10/13 07:38:01;;;;;;;;;;;16.30;99.90;;;;;;5117590;28;20302;-42
2023/10/13 07:43:08;;;;;;;;;;;16.30;99.90;;;;;;5117298;28;19984;-42
2023/10/13 07:45:36;;;;;;;;;;;16.30;99.90;;;;;;5117824;28;20291;-42
2023/10/13 07:48:07;;;;;;;;;;;16.30;99.90;;;;;;5117310;28;20072;-42
2023/10/13 07:50:34;;;;;;;;;;;16.30;99.90;;;;;;5117505;28;19924;-43
2023/10/13 07:53:04;;;;;;;;;;;16.30;99.90;;;;;;5117142;28;19924;-42
2023/10/13 07:55:33;;;;;;;;;;;16.30;99.90;;;;;;5117081;28;20374;-42
2023/10/13 07:57:59;;;;;;;;;;;16.30;99.90;;;;;;5117271;28;19946;-43
2023/10/13 08:00:29;;;;;;;;;;;16.30;99.90;;;;;;5117095;28;19924;-43
2023/10/13 08:03:08;;;;;;;;;;;16.30;99.90;;;;;;5116270;28;19928;-43
2023/10/13 08:05:55;;;;;;;;;;;16.30;99.90;;;;;;5117000;28;19924;-42
2023/10/13 08:08:22;;;;;;;;;;;16.30;99.90;;;;;;5117120;28;19953;-42
2023/10/13 08:10:48;;;;;;;;;;;16.30;99.90;;;;;;5117023;28;20028;-42
2023/10/13 08:13:14;;;;;;;;;;;16.30;99.90;;;;;;5116943;28;19923;-42
2023/10/13 08:15:47;;;;;;;;;;;16.20;99.90;;;;;;5116834;28;20280;-42
2023/10/13 08:18:30;;;;;;;;;;;16.30;99.90;;;;;;5116583;28;19976;-42
2023/10/13 08:21:04;;;;;;;;;;;16.20;99.90;;;;;;5117001;28;20328;-41
2023/10/13 08:23:57;;;;;;;;;;;16.20;99.90;;;;;;5117261;28;19924;-42
2023/10/13 08:29:53;;;;;;;;;;;16.20;99.90;;;;;;5116953;28;19931;-42
2023/10/13 08:32:13;;;;;;;;;;;16.30;99.90;;;;;;5116596;28;19932;-42
2023/10/13 08:34:39;;;;;;;;;;;16.20;99.90;;;;;;5116235;28;19927;-41
2023/10/13 08:37:28;;;;;;;;;;;16.20;99.90;;;;;;5116340;28;19931;-42
2023/10/13 08:48:08;;;;;;;;;;;16.30;99.90;;;;;;5116939;28;19935;-42
2023/10/13 08:53:28;;;;;;;;;;;16.30;99.90;;;;;;5116016;28;19931;-41
2023/10/13 08:58:59;;;;;;;;;;;16.40;99.90;;;;;;5116228;27;19966;-42
2023/10/13 09:01:13;;;;;;;;;;;16.40;99.90;;;;;;5115914;28;20018;-42
2023/10/13 09:03:40;;;;;;;;;;;16.50;99.90;;;;;;5115984;28;19924;-42
2023/10/13 09:06:14;;;;;;;;;;;16.50;99.90;;;;;;5115547;28;20439;-43
2023/10/13 09:09:04;;;;;;;;;;;16.50;99.90;;;;;;5115844;28;20352;-42
2023/10/13 09:11:48;;;;;;;;;;;16.60;99.90;;;;;;5115809;28;20102;-42
2023/10/13 09:14:33;;;;;;;;;;;16.60;99.90;;;;;;5115643;28;19969;-42
2023/10/13 09:17:08;;;;;;;;;;;16.60;99.90;;;;;;5115892;28;20411;-42
2023/10/13 09:19:47;;;;;;;;;;;16.70;99.90;;;;;;5115761;28;19931;-41
2023/10/13 09:22:26;;;;;;;;;;;16.70;99.90;;;;;;5115670;28;19923;-43
2023/10/13 09:24:53;;;;;;;;;;;16.70;99.90;;;;;;5115426;28;20336;-42
2023/10/13 09:27:19;;;;;;;;;;;16.80;99.90;;;;;;5115497;28;19935;-42
2023/10/13 09:29:54;;;;;;;;;;;16.90;99.90;;;;;;5115370;28;19923;-43
2023/10/13 09:32:21;;;;;;;;;;;16.90;99.90;;;;;;5115423;28;19923;-43
2023/10/13 09:34:48;;;;;;;;;;;17.00;99.90;;;;;;5115233;28;19927;-42
2023/10/13 09:37:20;;;;;;;;;;;17.10;99.90;;;;;;5115341;28;19924;-43
2023/10/13 09:39:48;;;;;;;;;;;17.10;99.90;;;;;;5115209;28;19928;-43
2023/10/13 09:42:16;;;;;;;;;;;17.20;99.90;;;;;;5115142;28;19924;-43
2023/10/13 09:44:49;;;;;;;;;;;17.30;99.90;;;;;;5115294;28;20335;-43
2023/10/13 09:47:17;;;;;;;;;;;17.30;99.90;;;;;;5114224;28;20014;-44
2023/10/13 09:49:49;;;;;;;;;;;17.40;99.90;;;;;;5114951;28;20014;-44
2023/10/13 09:52:19;;;;;;;;;;;17.40;99.90;;;;;;5114728;28;19931;-43
2023/10/13 09:55:00;;;;;;;;;;;17.50;99.90;;;;;;5115038;28;19924;-45
2023/10/13 09:57:34;;;;;;;;;;;17.50;99.90;;;;;;5114998;28;19997;-42
2023/10/13 10:00:26;;;;;;;;;;;17.60;99.90;;;;;;5115046;28;19924;-42
2023/10/13 10:02:57;;;;;;;;;;;17.60;99.90;;;;;;5114847;28;19930;-43
2023/10/13 10:05:26;;;;;;;;;;;17.70;99.90;;;;;;5114902;28;19924;-43
2023/10/13 10:07:56;;;;;;;;;;;17.70;99.90;;;;;;5114830;28;19923;-43
2023/10/13 10:10:25;;;;;;;;;;;17.80;99.90;;;;;;5114373;28;19924;-43
2023/10/13 10:12:55;;;;;;;;;;;17.80;99.90;;;;;;5114833;28;19924;-42
2023/10/13 10:15:28;;;;;;;;;;;17.90;99.90;;;;;;5113580;28;19947;-42
2023/10/13 10:17:54;;;;;;;;;;;17.90;99.90;;;;;;5114826;28;19984;-42
2023/10/13 10:20:33;;;;;;;;;;;18.00;99.90;;;;;;5114482;28;20432;-42
2023/10/13 10:22:59;;;;;;;;;;;18.10;99.90;;;;;;5113779;28;20434;-43
2023/10/13 10:25:37;;;;;;;;;;;18.10;99.90;;;;;;5114225;28;19923;-42
2023/10/13 10:28:07;;;;;;;;;;;18.10;99.90;;;;;;5114410;28;19924;-42
2023/10/13 10:30:34;;;;;;;;;;;18.20;99.90;;;;;;5113654;28;19930;-42
2023/10/13 10:33:01;;;;;;;;;;;18.20;99.90;;;;;;5114506;28;19923;-43
2023/10/13 10:35:29;;;;;;;;;;;18.20;99.90;;;;;;5114373;28;19931;-44
2023/10/13 10:40:58;;;;;;;;;;;18.20;99.90;;;;;;5114386;28;19930;-43
2023/10/13 10:43:50;;;;;;;;;;;18.20;99.90;;;;;;5114275;28;19931;-42
2023/10/13 10:46:18;;;;;;;;;;;18.30;99.90;;;;;;5110870;28;19928;-45
2023/10/13 10:48:44;;;;;;;;;;;18.40;99.90;;;;;;5114328;28;19985;-43
2023/10/13 10:51:31;;;;;;;;;;;18.50;99.90;;;;;;5114415;28;19924;-43
2023/10/13 10:53:57;;;;;;;;;;;18.50;99.90;;;;;;5113611;28;19962;-43
2023/10/13 10:56:41;;;;;;;;;;;18.60;99.90;;;;;;5114217;28;20052;-43
2023/10/13 10:59:29;;;;;;;;;;;18.70;99.90;;;;;;5113274;28;19935;-43
2023/10/13 11:01:54;;;;;;;;;;;18.70;99.90;;;;;;5114603;28;19928;-43
2023/10/13 11:06:49;;;;;;;;;;;18.80;99.90;;;;;;5118078;28;19971;-44
2023/10/13 11:11:53;;;;;;;;;;;18.90;99.90;;;;;;5118210;28;19971;-43
2023/10/13 11:14:24;;;;;;;;;;;19.00;99.90;;;;;;5117455;28;20131;-44
2023/10/13 11:16:51;;;;;;;;;;;19.10;99.90;;;;;;5117985;28;19930;-44
2023/10/13 11:19:20;;;;;;;;;;;19.20;99.90;;;;;;5117812;28;20374;-44
2023/10/13 11:21:47;;;;;;;;;;;19.20;99.90;;;;;;5117814;27;19970;-44
2023/10/13 11:24:13;;;;;;;;;;;19.20;99.90;;;;;;5117909;28;19931;-44
2023/10/13 11:26:52;;;;;;;;;;;19.20;99.90;;;;;;5117695;28;20028;-44
2023/10/13 11:29:21;;;;;;;;;;;19.20;99.90;;;;;;5118158;28;19924;-45
2023/10/13 11:31:53;;;;;;;;;;;19.20;99.90;;;;;;5117655;28;19970;-44
2023/10/13 11:34:19;;;;;;;;;;;19.10;99.90;;;;;;5116610;28;19975;-43
2023/10/13 11:36:45;;;;;;;;;;;19.10;99.90;;;;;;5117628;28;19974;-43
2023/10/13 11:39:17;;;;;;;;;;;19.20;99.90;;;;;;5117722;28;19924;-43
2023/10/13 11:41:50;;;;;;;;;;;19.20;99.90;;;;;;5117777;28;19923;-44
2023/10/13 11:46:55;;;;;;;;;;;19.30;99.90;;;;;;5117400;27;19938;-43
2023/10/13 11:52:01;;;;;;;;;;;19.30;99.90;;;;;;5117529;28;20263;-43
2023/10/13 11:54:27;;;;;;;;;;;19.30;99.90;;;;;;5117313;28;19923;-43
2023/10/13 11:56:58;;;;;;;;;;;19.30;99.90;;;;;;5116405;28;19988;-42
2023/10/13 11:59:27;;;;;;;;;;;19.20;99.90;;;;;;5117069;28;20382;-43
2023/10/13 12:07:16;;;;;;;;;;;19.00;99.90;;;;;;5117053;28;19924;-43
2023/10/13 12:10:59;;;;;;;;;;;18.90;99.90;;;;;;5117168;28;20342;-43
2023/10/13 12:12:46;;;;;;;;;;;18.90;99.90;;;;;;5106927;28;19970;-43
2023/10/13 12:15:36;;;;;;;;;;;18.80;99.90;;;;;;5116605;28;19969;-44
2023/10/13 12:18:03;;;;;;;;;;;18.80;99.90;;;;;;5116041;28;20375;-43
2023/10/13 12:20:35;;;;;;;;;;;18.90;99.90;;;;;;5116664;28;19950;-45
2023/10/13 12:23:15;;;;;;;;;;;18.90;99.90;;;;;;5116081;28;19923;-44
2023/10/13 12:26:00;;;;;;;;;;;18.90;99.90;;;;;;5116784;28;19923;-43
2023/10/13 12:28:26;;;;;;;;;;;18.90;99.90;;;;;;5116734;28;20351;-43
2023/10/13 12:30:57;;;;;;;;;;;18.90;99.90;;;;;;5116431;28;19923;-43
2023/10/13 12:33:27;;;;;;;;;;;19.00;99.90;;;;;;5116887;28;19924;-43
2023/10/13 12:52:25;;;;;;;;;;;19.10;99.90;;;;;;5116751;28;19923;-43
2023/10/13 12:57:23;;;;;;;;;;;19.10;99.90;;;;;;5116231;28;19984;-43
2023/10/13 12:59:48;;;;;;;;;;;19.00;99.90;;;;;;5114789;28;19931;-44
2023/10/13 13:02:14;;;;;;;;;;;19.00;99.90;;;;;;5114863;28;20019;-42
2023/10/13 13:04:43;;;;;;;;;;;18.90;99.90;;;;;;5115892;28;19931;-43
2023/10/13 13:07:13;;;;;;;;;;;18.90;99.90;;;;;;5116278;28;19924;-44
2023/10/13 13:09:41;;;;;;;;;;;18.90;99.90;;;;;;5115791;28;20291;-42
2023/10/13 13:12:07;;;;;;;;;;;18.90;99.90;;;;;;5115759;28;19924;-43
2023/10/13 13:14:34;;;;;;;;;;;18.80;99.90;;;;;;5115524;28;20405;-43
2023/10/13 13:17:06;;;;;;;;;;;18.80;99.90;;;;;;5115736;28;19931;-42
2023/10/13 13:19:35;;;;;;;;;;;18.70;99.90;;;;;;5115668;28;19924;-42
2023/10/13 13:22:05;;;;;;;;;;;18.70;99.90;;;;;;5114532;28;19969;-42
2023/10/13 13:24:31;;;;;;;;;;;18.60;99.90;;;;;;5115394;28;19923;-43
2023/10/13 13:27:02;;;;;;;;;;;18.60;99.90;;;;;;5115079;28;19923;-43
2023/10/13 13:29:29;;;;;;;;;;;18.50;99.90;;;;;;5114311;28;19923;-42
2023/10/13 13:31:55;;;;;;;;;;;18.50;99.90;;;;;;5115430;28;19924;-42
2023/10/13 13:34:21;;;;;;;;;;;18.40;99.90;;;;;;5115367;27;19930;-43
2023/10/13 13:36:52;;;;;;;;;;;18.40;99.90;;;;;;5115258;28;19923;-42
2023/10/13 13:39:29;;;;;;;;;;;18.40;99.90;;;;;;5115337;28;19924;-43
2023/10/13 13:41:56;;;;;;;;;;;18.30;99.90;;;;;;5115040;28;19927;-42
2023/10/13 13:44:35;;;;;;;;;;;18.30;99.90;;;;;;5114307;28;19930;-42
2023/10/13 13:47:05;;;;;;;;;;;18.30;99.90;;;;;;5115090;28;20367;-44
2023/10/13 13:49:39;;;;;;;;;;;18.30;99.90;;;;;;5115336;28;20286;-42
2023/10/13 13:52:05;;;;;;;;;;;18.20;99.90;;;;;;5114104;28;19930;-43
2023/10/13 13:54:31;;;;;;;;;;;18.20;99.90;;;;;;5115288;28;19924;-42
2023/10/13 13:56:57;;;;;;;;;;;18.20;99.90;;;;;;5114970;28;19924;-43
2023/10/13 13:59:22;;;;;;;;;;;18.20;99.90;;;;;;5115208;28;19924;-42
2023/10/13 14:01:48;;;;;;;;;;;18.20;99.90;;;;;;5114986;28;20327;-42
2023/10/13 14:04:17;;;;;;;;;;;18.20;99.90;;;;;;5115006;28;20438;-43
2023/10/13 14:06:44;;;;;;;;;;;18.30;99.90;;;;;;5114771;28;19930;-43
2023/10/13 14:09:32;;;;;;;;;;;18.30;99.90;;;;;;5114895;28;20010;-43
2023/10/13 14:14:55;;;;;;;;;;;18.30;99.90;;;;;;5114551;28;20386;-42
2023/10/13 14:17:33;;;;;;;;;;;18.40;99.90;;;;;;5114638;28;19928;-43
2023/10/13 14:19:58;;;;;;;;;;;18.40;99.90;;;;;;5115053;28;19930;-42
2023/10/13 14:22:24;;;;;;;;;;;18.40;99.90;;;;;;5114871;28;19971;-42
2023/10/13 14:24:54;;;;;;;;;;;18.50;99.90;;;;;;5113373;28;20018;-42
2023/10/13 14:27:22;;;;;;;;;;;18.50;99.90;;;;;;5114433;28;19930;-42
2023/10/13 14:29:52;;;;;;;;;;;18.50;99.90;;;;;;5114446;28;20294;-43
2023/10/13 14:32:19;;;;;;;;;;;18.50;99.90;;;;;;5113604;28;20287;-42
2023/10/13 14:34:45;;;;;;;;;;;18.50;99.90;;;;;;5114475;28;19927;-42
2023/10/13 14:37:20;;;;;;;;;;;18.60;99.90;;;;;;5114426;28;19924;-43
2023/10/13 14:39:46;;;;;;;;;;;18.60;99.90;;;;;;5116220;28;19927;-43
2023/10/13 14:42:11;;;;;;;;;;;18.60;99.90;;;;;;5118460;28;20339;-42
2023/10/13 14:44:37;;;;;;;;;;;18.60;99.90;;;;;;5119023;28;19931;-42
2023/10/13 14:47:05;;;;;;;;;;;18.70;99.90;;;;;;5118885;28;20271;-43
2023/10/13 14:49:31;;;;;;;;;;;18.70;99.90;;;;;;5118794;28;20083;-43
2023/10/13 14:51:59;;;;;;;;;;;18.70;99.90;;;;;;5118390;28;20436;-44
2023/10/13 14:54:34;;;;;;;;;;;18.70;99.90;;;;;;5118498;28;19923;-44
2023/10/13 14:57:02;;;;;;;;;;;18.70;99.90;;;;;;5118360;28;19923;-44
2023/10/13 14:59:32;;;;;;;;;;;18.70;99.90;;;;;;5117897;28;20346;-43
2023/10/13 15:02:01;;;;;;;;;;;18.60;99.90;;;;;;5118316;28;19979;-43
2023/10/13 15:04:28;;;;;;;;;;;18.60;99.90;;;;;;5117354;28;19924;-45
2023/10/13 15:06:54;;;;;;;;;;;18.60;99.90;;;;;;5116899;28;19973;-42
2023/10/13 15:09:23;;;;;;;;;;;18.60;99.90;;;;;;5118124;28;20450;-42
2023/10/13 15:11:52;;;;;;;;;;;18.60;99.90;;;;;;5118310;28;19954;-42
2023/10/13 15:14:20;;;;;;;;;;;18.70;99.90;;;;;;5118059;28;19930;-43
2023/10/13 15:16:45;;;;;;;;;;;18.70;99.90;;;;;;5118043;28;19924;-42
2023/10/13 15:19:12;;;;;;;;;;;18.60;99.90;;;;;;5117859;28;19923;-42
2023/10/13 15:21:39;;;;;;;;;;;18.60;99.90;;;;;;5117862;28;19977;-42
2023/10/13 15:24:16;;;;;;;;;;;18.60;99.90;;;;;;5117840;28;20362;-42
2023/10/13 15:26:48;;;;;;;;;;;18.60;99.90;;;;;;5116669;28;19924;-43
2023/10/13 15:29:16;;;;;;;;;;;18.50;99.90;;;;;;5117876;28;19924;-42
2023/10/13 15:31:48;;;;;;;;;;;18.50;99.90;;;;;;5117874;28;20388;-42
2023/10/13 15:34:14;;;;;;;;;;;18.40;99.90;;;;;;5117467;28;19924;-42
2023/10/13 15:36:42;;;;;;;;;;;18.40;99.90;;;;;;5117987;28;19934;-42
2023/10/13 15:39:11;;;;;;;;;;;18.40;99.90;;;;;;5117629;28;19924;-44
2023/10/13 15:41:38;;;;;;;;;;;18.40;99.90;;;;;;5117652;27;19928;-42
2023/10/13 15:44:06;;;;;;;;;;;18.30;99.90;;;;;;5117487;28;19930;-42
2023/10/13 15:46:31;;;;;;;;;;;18.30;99.90;;;;;;5117499;27;20002;-42
2023/10/13 15:48:59;;;;;;;;;;;18.30;99.90;;;;;;5117170;28;19997;-43
2023/10/13 15:51:25;;;;;;;;;;;18.30;99.90;;;;;;5117178;28;19924;-44
2023/10/13 15:53:51;;;;;;;;;;;18.30;99.90;;;;;;5117353;28;20018;-42
2023/10/13 15:56:17;;;;;;;;;;;18.30;99.90;;;;;;5117405;28;19924;-42
2023/10/13 15:58:45;;;;;;;;;;;18.30;99.90;;;;;;5117148;28;20255;-42
2023/10/13 16:01:14;;;;;;;;;;;18.30;99.90;;;;;;5117189;28;19924;-42
2023/10/13 16:03:43;;;;;;;;;;;18.30;99.90;;;;;;5117029;27;19931;-43
2023/10/13 16:06:11;;;;;;;;;;;18.30;99.90;;;;;;5117102;28;19928;-42
2023/10/13 16:08:37;;;;;;;;;;;18.30;99.90;;;;;;5117128;28;20295;-42
2023/10/13 16:11:07;;;;;;;;;;;18.30;99.90;;;;;;5116930;28;20371;-42
2023/10/13 16:13:36;;;;;;;;;;;18.30;99.90;;;;;;5116624;27;20375;-42
2023/10/13 16:16:02;;;;;;;;;;;18.30;99.90;;;;;;5116908;28;19924;-42
2023/10/13 16:18:32;;;;;;;;;;;18.30;99.90;;;;;;5116933;28;19930;-43
2023/10/13 16:21:04;;;;;;;;;;;18.30;99.90;;;;;;5117300;28;20018;-42
2023/10/13 16:23:30;;;;;;;;;;;18.30;99.90;;;;;;5117142;28;20023;-42
2023/10/13 16:25:58;;;;;;;;;;;18.30;99.90;;;;;;5116497;28;19927;-42
2023/10/13 16:28:24;;;;;;;;;;;18.30;99.90;;;;;;5116715;28;20427;-45
2023/10/13 16:30:53;;;;;;;;;;;18.30;99.90;;;;;;5116589;28;19928;-43
2023/10/13 16:33:22;;;;;;;;;;;18.30;99.90;;;;;;5116610;28;19924;-42
2023/10/13 16:35:49;;;;;;;;;;;18.30;99.90;;;;;;5116473;27;20329;-43
2023/10/13 16:38:15;;;;;;;;;;;18.30;99.90;;;;;;5116687;28;19923;-42
2023/10/13 16:40:41;;;;;;;;;;;18.30;99.90;;;;;;5116340;28;19924;-42
2023/10/13 16:43:09;;;;;;;;;;;18.30;99.90;;;;;;5115137;28;19971;-44
2023/10/13 16:45:36;;;;;;;;;;;18.30;99.90;;;;;;5116334;28;19924;-42
2023/10/13 16:48:02;;;;;;;;;;;18.30;99.90;;;;;;5116256;28;19931;-42
2023/10/13 16:50:28;;;;;;;;;;;18.30;99.90;;;;;;5116227;28;19954;-42
2023/10/13 16:52:56;;;;;;;;;;;18.30;99.90;;;;;;5116140;28;19923;-42
2023/10/13 16:55:22;;;;;;;;;;;18.30;99.90;;;;;;5115982;28;19924;-42
2023/10/13 16:57:50;;;;;;;;;;;18.30;99.90;;;;;;5115939;28;19928;-44
2023/10/13 17:00:18;;;;;;;;;;;18.30;99.90;;;;;;5116166;28;19924;-42
2023/10/13 17:02:45;;;;;;;;;;;18.30;99.90;;;;;;5115305;28;19967;-43
2023/10/13 17:05:17;;;;;;;;;;;18.40;99.90;;;;;;5115075;28;20010;-45
2023/10/13 17:07:51;;;;;;;;;;;18.30;99.90;;;;;;5116040;28;19977;-42
2023/10/13 17:10:17;;;;;;;;;;;18.30;99.90;;;;;;5115760;28;20406;-42
2023/10/13 17:12:43;;;;;;;;;;;18.40;99.90;;;;;;5114519;28;20022;-42
2023/10/13 17:15:21;;;;;;;;;;;18.40;99.90;;;;;;5115934;28;19924;-42
2023/10/13 17:17:47;;;;;;;;;;;18.30;99.90;;;;;;5115869;28;20339;-42
2023/10/13 17:20:13;;;;;;;;;;;18.40;99.90;;;;;;5114542;28;19924;-42
2023/10/13 17:22:40;;;;;;;;;;;18.40;99.90;;;;;;5115596;28;19924;-44
2023/10/13 17:25:06;;;;;;;;;;;18.40;99.90;;;;;;5115483;28;19978;-42
2023/10/13 17:27:36;;;;;;;;;;;18.40;99.90;;;;;;5115579;28;20324;-43
2023/10/13 17:30:05;;;;;;;;;;;18.40;99.90;;;;;;5115827;28;20016;-42
2023/10/13 17:32:32;;;;;;;;;;;18.40;99.90;;;;;;5115229;28;20440;-43